Time;durP1;ratioP1;P1;durP2;ratioP2;P2;SDS_P1;SDS_P2;PMS_P1;PMS_P2;Temp;Humidity;BMP_temperature;BMP_pressure;BME280_temperature;BME280_humidity;BME280_pressure;Samples;Min_cycle;Max_cycle;Signal;HPM_P1;HPM_P2
2022/07/17 00:00:45;;;;;;;2.80;0.93;;;11.60;99.90;;;;;;5089832;28;20494;-62
2022/07/17 00:03:16;;;;;;;2.30;1.10;;;11.50;99.90;;;;;;5088819;28;20031;-62
2022/07/17 00:05:42;;;;;;;3.08;1.02;;;11.50;99.90;;;;;;5071605;28;20486;-62
2022/07/17 00:08:10;;;;;;;5.10;1.35;;;11.40;99.90;;;;;;5089545;28;20083;-62
2022/07/17 00:10:38;;;;;;;5.00;1.20;;;11.40;99.90;;;;;;5091055;28;20048;-62
2022/07/17 00:13:04;;;;;;;8.00;1.77;;;11.40;99.90;;;;;;5091709;28;20059;-61
2022/07/17 00:15:31;;;;;;;3.15;0.90;;;11.30;99.90;;;;;;5089347;28;20475;-62
2022/07/17 00:17:57;;;;;;;3.30;1.20;;;11.30;99.90;;;;;;5090582;28;20051;-63
2022/07/17 00:20:25;;;;;;;4.20;1.10;;;11.30;99.90;;;;;;5090091;28;20040;-61
2022/07/17 00:22:57;;;;;;;5.47;1.10;;;11.20;99.90;;;;;;5090532;28;20040;-63
2022/07/17 00:25:23;;;;;;;3.55;1.25;;;11.20;99.90;;;;;;5089752;28;20094;-64
2022/07/17 00:27:49;;;;;;;3.15;1.10;;;11.20;99.90;;;;;;5091044;28;20064;-61
2022/07/17 00:30:16;;;;;;;4.22;1.40;;;11.20;99.90;;;;;;5090133;28;20028;-62
2022/07/17 00:32:42;;;;;;;4.00;1.35;;;11.20;99.90;;;;;;5088548;28;20105;-63
2022/07/17 00:35:08;;;;;;;6.00;1.40;;;11.20;99.90;;;;;;5087125;28;20529;-62
2022/07/17 00:37:42;;;;;;;3.47;1.10;;;11.10;99.90;;;;;;5089917;28;20047;-62
2022/07/17 00:40:11;;;;;;;4.28;1.13;;;11.10;99.90;;;;;;5087516;28;20127;-61
2022/07/17 00:42:40;;;;;;;4.53;1.50;;;11.10;99.90;;;;;;5088315;28;20036;-62
2022/07/17 00:45:07;;;;;;;6.35;1.42;;;11.10;99.90;;;;;;5089952;28;20062;-62
2022/07/17 00:47:35;;;;;;;3.83;1.25;;;11.00;99.90;;;;;;5086270;28;20047;-63
2022/07/17 00:50:01;;;;;;;1.55;1.00;;;11.00;99.90;;;;;;5085283;28;20541;-62
2022/07/17 00:52:26;;;;;;;2.10;1.02;;;11.00;99.90;;;;;;5088917;28;20120;-63
2022/07/17 00:54:54;;;;;;;1.70;0.88;;;11.00;99.90;;;;;;5090746;28;20036;-61
2022/07/17 00:57:20;;;;;;;1.85;0.90;;;10.90;99.90;;;;;;5088827;28;20038;-62
2022/07/17 00:59:46;;;;;;;2.75;1.10;;;10.90;99.90;;;;;;5089242;28;20047;-62
2022/07/17 01:02:16;;;;;;;3.38;1.10;;;10.90;99.90;;;;;;5090694;28;20564;-62
2022/07/17 01:04:41;;;;;;;3.03;1.30;;;10.90;99.90;;;;;;5089625;28;21131;-62
2022/07/17 01:07:07;;;;;;;2.92;1.30;;;10.80;99.90;;;;;;5090081;28;20039;-62
2022/07/17 01:09:34;;;;;;;2.10;1.13;;;10.80;99.90;;;;;;5089267;28;20040;-62
2022/07/17 01:12:00;;;;;;;2.42;1.13;;;10.80;99.90;;;;;;5073304;28;20071;-63
2022/07/17 01:14:27;;;;;;;2.63;1.25;;;10.70;99.90;;;;;;5087123;28;20036;-62
2022/07/17 01:16:53;;;;;;;1.58;1.20;;;10.70;99.90;;;;;;5090517;28;20020;-62
2022/07/17 01:19:21;;;;;;;3.03;1.40;;;10.70;99.90;;;;;;5088856;28;20510;-62
2022/07/17 01:21:49;;;;;;;3.72;1.20;;;10.60;99.90;;;;;;5090213;28;20439;-62
2022/07/17 01:24:15;;;;;;;3.28;1.15;;;10.60;99.90;;;;;;5089596;28;20040;-63
2022/07/17 01:26:45;;;;;;;1.70;1.00;;;10.60;99.90;;;;;;5084988;28;20051;-62
2022/07/17 01:29:12;;;;;;;2.05;1.00;;;10.50;99.90;;;;;;5089442;28;20060;-62
2022/07/17 01:31:39;;;;;;;3.88;1.10;;;10.50;99.90;;;;;;5088982;28;20471;-62
2022/07/17 01:34:07;;;;;;;3.35;1.25;;;10.50;99.90;;;;;;5089054;28;20422;-61
2022/07/17 01:36:34;;;;;;;3.75;1.10;;;10.40;99.90;;;;;;5086494;28;20177;-61
2022/07/17 01:39:00;;;;;;;3.67;1.33;;;10.40;99.90;;;;;;5088906;28;20048;-62
2022/07/17 01:41:25;;;;;;;3.45;1.50;;;10.40;99.90;;;;;;5087930;28;20386;-63
2022/07/17 01:43:51;;;;;;;4.60;1.25;;;10.40;99.90;;;;;;5091175;28;20034;-62
2022/07/17 01:46:17;;;;;;;4.32;1.30;;;10.40;99.90;;;;;;5088269;28;20081;-62
2022/07/17 01:48:43;;;;;;;2.25;1.30;;;10.40;99.90;;;;;;5088004;28;20055;-61
2022/07/17 01:51:08;;;;;;;2.47;1.13;;;10.30;99.90;;;;;;5089420;28;20036;-62
2022/07/17 01:53:34;;;;;;;2.58;1.30;;;10.30;99.90;;;;;;5090006;28;20479;-62
2022/07/17 01:56:00;;;;;;;2.80;1.10;;;10.30;99.90;;;;;;5087709;28;20040;-62
2022/07/17 01:58:26;;;;;;;2.95;1.05;;;10.30;99.90;;;;;;5090010;28;20040;-62
2022/07/17 02:00:52;;;;;;;4.03;1.10;;;10.30;99.90;;;;;;5089612;28;20051;-62
2022/07/17 02:03:18;;;;;;;3.13;1.20;;;10.30;99.90;;;;;;5087520;28;20118;-62
2022/07/17 02:05:43;;;;;;;2.00;1.20;;;10.30;99.90;;;;;;5088447;28;20115;-62
2022/07/17 02:08:09;;;;;;;2.78;1.10;;;10.30;99.90;;;;;;5089935;28;20436;-62
2022/07/17 02:10:35;;;;;;;2.45;0.95;;;10.30;99.90;;;;;;5087471;28;20028;-62
2022/07/17 02:13:00;;;;;;;3.65;1.15;;;10.20;99.90;;;;;;5091733;28;20048;-62
2022/07/17 02:15:26;;;;;;;1.98;0.98;;;10.20;99.90;;;;;;5092758;28;20065;-62
2022/07/17 02:17:52;;;;;;;1.95;1.27;;;10.20;99.90;;;;;;5092550;28;20551;-63
2022/07/17 02:20:18;;;;;;;2.55;1.38;;;10.20;99.90;;;;;;5091980;28;20487;-62
2022/07/17 02:22:44;;;;;;;1.90;1.10;;;10.10;99.90;;;;;;5092464;28;20044;-62
2022/07/17 02:25:12;;;;;;;2.58;1.20;;;10.10;99.90;;;;;;5093727;28;20086;-61
2022/07/17 02:27:38;;;;;;;3.92;1.20;;;10.10;99.90;;;;;;5091133;28;20072;-60
2022/07/17 02:30:24;;;;;;;2.50;1.20;;;10.10;99.90;;;;;;5092689;28;20118;-61
2022/07/17 02:32:50;;;;;;;3.08;1.30;;;10.10;99.90;;;;;;5123913;27;20511;-62
2022/07/17 02:35:15;;;;;;;1.58;1.17;;;10.00;99.90;;;;;;5093188;28;20080;-62
2022/07/17 02:37:42;;;;;;;3.38;1.08;;;10.00;99.90;;;;;;5089944;28;20432;-62
2022/07/17 02:40:09;;;;;;;3.40;1.08;;;10.00;99.90;;;;;;5090393;28;20048;-62
2022/07/17 02:42:35;;;;;;;2.30;1.40;;;10.00;99.90;;;;;;5089704;28;20068;-62
2022/07/17 02:45:00;;;;;;;3.35;1.25;;;10.00;99.90;;;;;;5123307;27;20071;-63
2022/07/17 02:47:31;;;;;;;1.75;1.20;;;10.00;99.90;;;;;;5094420;28;20040;-62
2022/07/17 02:49:59;;;;;;;2.78;1.30;;;10.00;99.90;;;;;;5089777;28;20457;-61
2022/07/17 02:52:25;;;;;;;3.00;1.30;;;9.90;99.90;;;;;;5090789;28;20070;-63
2022/07/17 02:54:51;;;;;;;2.17;1.10;;;9.90;99.90;;;;;;5092357;28;20073;-62
2022/07/17 02:57:18;;;;;;;2.80;1.00;;;9.90;99.90;;;;;;5125832;27;20036;-60
2022/07/17 02:59:43;;;;;;;3.17;1.10;;;9.90;99.90;;;;;;5090065;28;20032;-63
2022/07/17 03:02:09;;;;;;;2.78;1.20;;;9.90;99.90;;;;;;5092759;28;20535;-62
2022/07/17 03:04:35;;;;;;;4.88;1.30;;;9.90;99.90;;;;;;5091866;28;20117;-61
2022/07/17 03:07:00;;;;;;;3.50;1.55;;;9.90;99.90;;;;;;5092930;28;20124;-64
2022/07/17 03:09:26;;;;;;;4.32;1.38;;;9.80;99.90;;;;;;5092582;28;20110;-60
2022/07/17 03:11:52;;;;;;;2.78;1.52;;;9.80;99.90;;;;;;5093012;28;20050;-63
2022/07/17 03:14:17;;;;;;;5.22;1.60;;;9.80;99.90;;;;;;5089609;28;20065;-60
2022/07/17 03:16:43;;;;;;;3.95;1.48;;;9.80;99.90;;;;;;5091332;28;20032;-61
2022/07/17 03:19:08;;;;;;;4.32;1.42;;;9.80;99.90;;;;;;5092632;28;20036;-62
2022/07/17 03:21:34;;;;;;;3.55;1.48;;;9.80;99.90;;;;;;5092116;28;20055;-62
2022/07/17 03:24:00;;;;;;;2.92;1.50;;;9.80;99.90;;;;;;5089578;28;20501;-62
2022/07/17 03:26:25;;;;;;;4.32;1.35;;;9.80;99.90;;;;;;5123644;27;20129;-61
2022/07/17 03:28:51;;;;;;;2.05;1.23;;;9.80;99.90;;;;;;5090545;28;20040;-62
2022/07/17 03:31:16;;;;;;;3.97;1.23;;;9.70;99.90;;;;;;5089294;28;20048;-62
2022/07/17 03:33:42;;;;;;;2.78;1.15;;;9.70;99.90;;;;;;5091166;28;20039;-61
2022/07/17 03:36:08;;;;;;;2.47;1.25;;;9.70;99.90;;;;;;5087360;28;20056;-62
2022/07/17 03:38:33;;;;;;;1.40;1.27;;;9.60;99.90;;;;;;5090813;28;20098;-61
2022/07/17 03:40:59;;;;;;;2.47;1.27;;;9.60;99.90;;;;;;5092286;28;20047;-62
2022/07/17 03:43:25;;;;;;;2.10;1.52;;;9.50;99.90;;;;;;5088390;28;20774;-62
2022/07/17 03:45:50;;;;;;;2.63;1.30;;;9.60;99.90;;;;;;5087500;28;20048;-62
2022/07/17 03:48:16;;;;;;;1.60;1.20;;;9.50;99.90;;;;;;5092112;28;20056;-62
2022/07/17 03:50:42;;;;;;;1.70;1.15;;;9.50;99.90;;;;;;5091997;28;20110;-61
2022/07/17 03:53:08;;;;;;;2.35;1.40;;;9.50;99.90;;;;;;5089618;28;20059;-62
2022/07/17 03:55:33;;;;;;;2.42;1.23;;;9.50;99.90;;;;;;5090578;28;20101;-62
2022/07/17 03:57:59;;;;;;;2.13;1.30;;;9.50;99.90;;;;;;5090081;28;20482;-62
2022/07/17 04:00:25;;;;;;;2.50;1.50;;;9.50;99.90;;;;;;5091647;28;20064;-61
2022/07/17 04:02:50;;;;;;;2.30;1.35;;;9.60;99.90;;;;;;5090474;28;20097;-63
2022/07/17 04:05:16;;;;;;;3.33;1.55;;;9.50;99.90;;;;;;5092984;28;20028;-63
2022/07/17 04:07:42;;;;;;;2.55;1.40;;;9.60;99.90;;;;;;5090131;28;20028;-62
2022/07/17 04:10:10;;;;;;;3.33;1.40;;;9.60;99.90;;;;;;5090454;28;20040;-64
2022/07/17 04:12:37;;;;;;;3.00;1.40;;;9.60;99.90;;;;;;5091650;28;20040;-62
2022/07/17 04:15:03;;;;;;;1.98;1.30;;;9.60;99.90;;;;;;5091762;28;20043;-61
2022/07/17 04:17:29;;;;;;;4.05;1.60;;;9.60;99.90;;;;;;5089130;28;20046;-62
2022/07/17 04:19:54;;;;;;;3.20;1.40;;;9.70;99.90;;;;;;5090005;28;20102;-63
2022/07/17 04:22:20;;;;;;;1.48;1.27;;;9.70;99.90;;;;;;5089047;28;20872;-62
2022/07/17 04:24:46;;;;;;;3.38;1.83;;;9.70;99.90;;;;;;5092868;28;20028;-62
2022/07/17 04:27:12;;;;;;;5.95;1.40;;;9.80;99.90;;;;;;5122039;27;20044;-62
2022/07/17 04:29:38;;;;;;;4.72;1.83;;;9.80;99.90;;;;;;5090775;28;20035;-62
2022/07/17 04:32:04;;;;;;;4.95;1.77;;;9.80;99.90;;;;;;5090759;28;20406;-62
2022/07/17 04:34:32;;;;;;;1.83;1.50;;;9.80;99.90;;;;;;5091067;28;20105;-62
2022/07/17 04:36:57;;;;;;;4.55;1.80;;;9.90;99.90;;;;;;5091044;28;20048;-62
2022/07/17 04:39:23;;;;;;;3.38;1.85;;;9.90;99.90;;;;;;5088920;28;20072;-62
2022/07/17 04:41:49;;;;;;;4.82;1.70;;;10.00;99.90;;;;;;5088907;28;20185;-62
2022/07/17 04:44:15;;;;;;;3.85;1.70;;;10.10;99.90;;;;;;5072564;28;20040;-62
2022/07/17 04:46:41;;;;;;;5.20;1.85;;;10.10;99.90;;;;;;5087213;28;20040;-63
2022/07/17 04:49:06;;;;;;;6.65;1.88;;;10.20;99.90;;;;;;5090400;28;20032;-61
2022/07/17 04:51:32;;;;;;;2.70;1.63;;;10.20;99.90;;;;;;5090314;28;20043;-64
2022/07/17 04:53:58;;;;;;;9.15;2.00;;;10.30;99.90;;;;;;5089444;28;20556;-62
2022/07/17 04:56:24;;;;;;;4.75;2.35;;;10.40;99.90;;;;;;5089673;28;20422;-62
2022/07/17 04:58:49;;;;;;;2.10;1.63;;;10.50;99.90;;;;;;5071872;28;20082;-61
2022/07/17 05:01:15;;;;;;;5.85;1.98;;;10.60;99.90;;;;;;5088605;28;20390;-63
2022/07/17 05:03:40;;;;;;;3.97;1.70;;;10.70;99.90;;;;;;5088425;28;20070;-62
2022/07/17 05:06:06;;;;;;;3.63;1.60;;;10.80;99.90;;;;;;5088767;28;20054;-62
2022/07/17 05:08:34;;;;;;;5.95;1.70;;;10.90;99.90;;;;;;5090625;28;20119;-62
2022/07/17 05:10:59;;;;;;;4.30;2.13;;;11.00;99.90;;;;;;5089739;28;20044;-63
2022/07/17 05:13:25;;;;;;;2.78;1.92;;;11.10;99.90;;;;;;5090305;28;20042;-62
2022/07/17 05:15:51;;;;;;;3.10;1.55;;;11.20;99.90;;;;;;5088053;28;20040;-62
2022/07/17 05:18:16;;;;;;;3.22;1.65;;;11.30;99.90;;;;;;5088793;28;20153;-62
2022/07/17 05:20:42;;;;;;;2.17;1.60;;;11.40;99.90;;;;;;5087685;28;20500;-63
2022/07/17 05:23:07;;;;;;;4.85;1.88;;;11.50;99.90;;;;;;5090264;28;20469;-63
2022/07/17 05:25:33;;;;;;;2.70;1.50;;;11.60;99.90;;;;;;5089381;28;20039;-62
2022/07/17 05:27:59;;;;;;;6.28;2.25;;;11.70;99.90;;;;;;5090233;28;20374;-61
2022/07/17 05:30:25;;;;;;;5.63;1.90;;;11.80;99.90;;;;;;5088960;28;20050;-63
2022/07/17 05:32:51;;;;;;;3.70;2.10;;;11.90;99.90;;;;;;5088580;28;20114;-62
2022/07/17 05:35:16;;;;;;;6.03;1.90;;;12.00;99.90;;;;;;5088085;28;20055;-62
2022/07/17 05:37:42;;;;;;;4.85;1.98;;;12.10;99.90;;;;;;5088168;28;20083;-61
2022/07/17 05:40:08;;;;;;;5.75;2.35;;;12.10;99.90;;;;;;5087811;28;20040;-62
2022/07/17 05:42:34;;;;;;;6.80;2.30;;;12.20;99.90;;;;;;5086007;28;20127;-62
2022/07/17 05:44:59;;;;;;;5.15;2.45;;;12.30;99.90;;;;;;5087743;28;20123;-61
2022/07/17 05:47:25;;;;;;;4.55;1.90;;;12.20;99.90;;;;;;5093015;28;20036;-63
2022/07/17 05:49:51;;;;;;;9.40;2.03;;;12.30;99.90;;;;;;5095266;28;20027;-62
2022/07/17 05:52:17;;;;;;;6.32;1.88;;;12.40;99.90;;;;;;5094838;28;20382;-61
2022/07/17 05:54:43;;;;;;;3.33;1.83;;;12.40;99.90;;;;;;5093818;28;20089;-61
2022/07/17 05:57:09;;;;;;;5.93;2.20;;;12.50;99.90;;;;;;5091902;28;20048;-61
2022/07/17 05:59:34;;;;;;;6.47;2.20;;;12.60;99.90;;;;;;5093123;28;20032;-62
2022/07/17 06:02:00;;;;;;;4.07;1.55;;;12.70;99.90;;;;;;5092764;28;20483;-61
2022/07/17 06:04:26;;;;;;;5.13;1.60;;;12.80;99.90;;;;;;5091243;28;20028;-61
2022/07/17 06:06:51;;;;;;;3.45;1.73;;;12.90;99.90;;;;;;5090039;28;20036;-62
2022/07/17 06:09:17;;;;;;;5.05;1.60;;;13.00;99.90;;;;;;5120413;27;20043;-61
2022/07/17 06:11:43;;;;;;;4.88;1.58;;;13.10;99.90;;;;;;5090634;28;20470;-62
2022/07/17 06:14:08;;;;;;;4.10;1.52;;;13.30;99.90;;;;;;5092341;28;20035;-62
2022/07/17 06:16:34;;;;;;;5.78;1.60;;;13.50;99.90;;;;;;5091412;28;20063;-62
2022/07/17 06:19:00;;;;;;;4.47;1.63;;;13.60;99.90;;;;;;5095576;28;20051;-61
2022/07/17 06:21:25;;;;;;;4.70;1.60;;;13.80;99.90;;;;;;5096062;28;20114;-61
2022/07/17 06:23:51;;;;;;;4.95;1.38;;;14.00;99.90;;;;;;5093217;28;20477;-62
2022/07/17 06:26:17;;;;;;;6.78;1.92;;;14.30;99.90;;;;;;5095585;28;20986;-61
2022/07/17 06:28:42;;;;;;;8.80;1.42;;;14.50;99.90;;;;;;5092945;28;20070;-63
2022/07/17 06:31:08;;;;;;;1.85;0.90;;;14.70;99.90;;;;;;5093387;28;20131;-61
2022/07/17 06:33:34;;;;;;;4.28;1.20;;;14.90;99.90;;;;;;5095951;28;20028;-62
2022/07/17 06:36:00;;;;;;;7.10;1.35;;;15.10;99.90;;;;;;5091089;28;20087;-63
2022/07/17 06:38:26;;;;;;;4.25;1.35;;;15.40;99.90;;;;;;5093982;28;20143;-61
2022/07/17 06:40:52;;;;;;;4.25;0.82;;;15.60;99.90;;;;;;5094987;28;20122;-61
2022/07/17 06:43:18;;;;;;;4.78;0.90;;;15.60;99.90;;;;;;5093706;28;20056;-63
2022/07/17 06:45:44;;;;;;;3.85;1.13;;;15.80;99.90;;;;;;5094953;28;20443;-63
2022/07/17 06:48:09;;;;;;;5.30;0.90;;;15.90;99.90;;;;;;5093832;28;20040;-62
2022/07/17 06:50:35;;;;;;;3.80;0.80;;;16.00;99.90;;;;;;5127820;27;20050;-62
2022/07/17 06:53:01;;;;;;;3.80;1.00;;;16.10;99.90;;;;;;5093970;28;20109;-62
2022/07/17 06:55:27;;;;;;;4.47;1.05;;;16.20;99.90;;;;;;5095499;28;20036;-62
2022/07/17 06:57:52;;;;;;;2.90;0.85;;;16.30;99.90;;;;;;5094259;28;20067;-64
2022/07/17 07:00:18;;;;;;;4.13;0.90;;;16.40;99.90;;;;;;5091314;28;20072;-62
2022/07/17 07:02:44;;;;;;;5.05;1.35;;;16.60;99.90;;;;;;5088892;28;20031;-63
2022/07/17 07:05:10;;;;;;;7.22;1.63;;;16.70;99.90;;;;;;5092108;28;20036;-61
2022/07/17 07:07:36;;;;;;;7.30;1.58;;;16.90;99.90;;;;;;5090552;28;20027;-61
2022/07/17 07:10:01;;;;;;;6.53;1.15;;;16.90;99.90;;;;;;5090990;28;20422;-62
2022/07/17 07:12:27;;;;;;;4.13;0.90;;;17.00;99.90;;;;;;5091159;28;20035;-62
2022/07/17 07:14:53;;;;;;;4.65;1.00;;;17.10;99.90;;;;;;5090024;28;20028;-63
2022/07/17 07:17:19;;;;;;;6.53;0.93;;;17.30;99.90;;;;;;5090734;28;20042;-62
2022/07/17 07:19:44;;;;;;;7.13;1.05;;;17.30;99.90;;;;;;5092422;28;20035;-63
2022/07/17 07:22:10;;;;;;;4.80;0.75;;;17.50;99.90;;;;;;5091298;28;20574;-63
2022/07/17 07:24:36;;;;;;;2.90;0.70;;;17.70;99.90;;;;;;5091791;28;20042;-62
2022/07/17 07:27:01;;;;;;;4.03;0.93;;;17.70;99.90;;;;;;5123858;27;20058;-62
2022/07/17 07:29:27;;;;;;;2.75;0.70;;;17.60;99.90;;;;;;5088636;28;20194;-62
2022/07/17 07:31:52;;;;;;;3.97;0.85;;;17.60;99.90;;;;;;5083025;28;20036;-60
2022/07/17 07:34:18;;;;;;;4.88;0.95;;;17.60;99.90;;;;;;5081730;28;20031;-61
2022/07/17 07:36:44;;;;;;;4.57;1.00;;;17.80;99.90;;;;;;5080631;28;20085;-62
2022/07/17 07:39:09;;;;;;;3.95;0.95;;;17.90;99.90;;;;;;5080695;28;20468;-63
2022/07/17 07:41:35;;;;;;;4.38;0.93;;;17.90;99.90;;;;;;5081236;28;20037;-62
2022/07/17 07:44:01;;;;;;;4.05;1.25;;;18.00;99.90;;;;;;5081211;28;20036;-63
2022/07/17 07:46:26;;;;;;;2.22;0.80;;;18.20;99.90;;;;;;5089394;28;20024;-63
2022/07/17 07:48:52;;;;;;;5.32;0.90;;;18.10;99.90;;;;;;5089298;28;20045;-63
2022/07/17 07:51:17;;;;;;;5.45;0.90;;;18.30;99.90;;;;;;5090649;28;20036;-64
2022/07/17 07:53:43;;;;;;;8.30;1.20;;;18.40;99.90;;;;;;5090580;28;20039;-64
2022/07/17 07:56:09;;;;;;;3.92;0.93;;;18.60;99.90;;;;;;5091794;28;20074;-62
2022/07/17 07:58:34;;;;;;;3.45;0.90;;;18.50;99.90;;;;;;5088451;28;20044;-63
2022/07/17 08:01:00;;;;;;;6.35;1.17;;;18.70;99.90;;;;;;5091101;28;20528;-62
2022/07/17 08:03:25;;;;;;;6.85;1.02;;;18.70;99.90;;;;;;5089518;28;20032;-62
2022/07/17 08:05:51;;;;;;;2.28;0.60;;;18.80;99.90;;;;;;5088488;28;20035;-63
2022/07/17 08:08:17;;;;;;;3.10;0.70;;;18.60;99.90;;;;;;5089382;28;20078;-63
2022/07/17 08:10:42;;;;;;;6.20;0.95;;;18.90;99.90;;;;;;5091299;28;20062;-63
2022/07/17 08:13:08;;;;;;;4.10;0.90;;;19.00;99.90;;;;;;5085332;28;20032;-62
2022/07/17 08:15:34;;;;;;;3.65;0.88;;;19.10;99.90;;;;;;5088022;28;20035;-60
2022/07/17 08:17:59;;;;;;;3.88;1.00;;;18.90;99.90;;;;;;5124223;27;20116;-61
2022/07/17 08:20:25;;;;;;;2.88;0.88;;;18.80;99.90;;;;;;5089231;28;20094;-62
2022/07/17 08:22:51;;;;;;;5.20;1.20;;;19.00;99.90;;;;;;5091399;28;20554;-63
2022/07/17 08:25:17;;;;;;;5.13;0.80;;;19.10;99.90;;;;;;5088458;28;20483;-63
2022/07/17 08:27:43;;;;;;;3.22;0.82;;;19.40;99.90;;;;;;5088870;28;20071;-61
2022/07/17 08:30:11;;;;;;;4.57;0.68;;;19.60;99.90;;;;;;5090062;28;20068;-62
2022/07/17 08:32:37;;;;;;;6.32;1.00;;;19.80;99.90;;;;;;5091141;28;20040;-62
2022/07/17 08:35:04;;;;;;;6.65;0.90;;;19.70;99.90;;;;;;5086286;28;20090;-62
2022/07/17 08:37:30;;;;;;;4.00;0.80;;;19.90;99.90;;;;;;5087939;28;20051;-62
2022/07/17 08:39:56;;;;;;;3.75;0.98;;;20.20;99.90;;;;;;5089801;28;20052;-62
2022/07/17 08:42:22;;;;;;;4.28;0.80;;;20.20;99.90;;;;;;5090531;28;20032;-63
2022/07/17 08:44:48;;;;;;;4.65;0.93;;;20.20;99.90;;;;;;5090692;28;20043;-63
2022/07/17 08:47:15;;;;;;;3.40;0.88;;;20.50;99.90;;;;;;5085482;28;20033;-62
2022/07/17 08:49:48;;;;;;;3.72;0.88;;;20.50;99.90;;;;;;5089596;28;20475;-60
2022/07/17 08:52:14;;;;;;;6.32;0.80;;;20.70;99.90;;;;;;5089939;28;20032;-63
2022/07/17 08:54:40;;;;;;;1.80;0.70;;;20.60;99.90;;;;;;5090872;28;20112;-64
2022/07/17 08:57:06;;;;;;;3.47;0.80;;;20.80;99.90;;;;;;5084365;28;20545;-63
2022/07/17 08:59:32;;;;;;;4.25;1.02;;;20.90;99.90;;;;;;5081072;28;20089;-63
2022/07/17 09:02:01;;;;;;;3.25;0.73;;;21.10;99.90;;;;;;5086380;28;20078;-64
2022/07/17 09:04:27;;;;;;;5.32;0.90;;;21.30;99.90;;;;;;5113641;27;20036;-62
2022/07/17 09:07:01;;;;;;;2.97;0.90;;;21.20;99.70;;;;;;5077341;28;20548;-64
2022/07/17 09:09:28;;;;;;;4.43;0.88;;;21.30;99.90;;;;;;5079197;28;20052;-62
2022/07/17 09:11:55;;;;;;;3.28;0.82;;;21.30;99.90;;;;;;5079882;28;20041;-63
2022/07/17 09:14:21;;;;;;;1.95;0.60;;;21.40;99.30;;;;;;5079587;28;20078;-63
2022/07/17 09:16:57;;;;;;;1.70;0.80;;;21.30;98.90;;;;;;5079806;28;20479;-63
2022/07/17 09:19:31;;;;;;;5.50;0.95;;;21.10;99.20;;;;;;5082561;28;20051;-64
2022/07/17 09:22:18;;;;;;;3.28;0.80;;;21.30;99.50;;;;;;5087441;28;20048;-63
2022/07/17 09:24:45;;;;;;;4.57;0.98;;;21.40;99.00;;;;;;5090690;28;20040;-63
2022/07/17 09:27:13;;;;;;;3.25;0.80;;;21.40;99.80;;;;;;5087102;28;20040;-62
2022/07/17 09:30:17;;;;;;;2.90;0.80;;;21.50;99.60;;;;;;5085373;28;20078;-62
2022/07/17 09:32:43;;;;;;;6.55;0.90;;;21.50;98.60;;;;;;5047353;28;20376;-65
2022/07/17 09:35:10;;;;;;;3.70;0.85;;;21.40;99.00;;;;;;5012472;28;20052;-62
2022/07/17 09:37:37;;;;;;;3.22;0.95;;;21.60;98.80;;;;;;5021056;28;20064;-62
2022/07/17 09:41:09;;;;;;;5.47;1.13;;;21.40;98.80;;;;;;5020917;28;20470;-62
2022/07/17 09:42:59;;;;;;;5.65;1.00;;;21.70;98.90;;;;;;5008605;28;20192;-62
2022/07/17 09:45:25;;;;;;;3.72;1.00;;;22.00;99.40;;;;;;5027190;28;20041;-63
2022/07/17 09:47:52;;;;;;;4.75;0.90;;;22.20;99.60;;;;;;5030374;28;20163;-63
2022/07/17 09:50:19;;;;;;;5.18;0.85;;;22.30;99.20;;;;;;5039222;28;20381;-62
2022/07/17 09:52:45;;;;;;;2.10;0.70;;;22.50;99.10;;;;;;5026485;28;20123;-63
2022/07/17 09:55:12;;;;;;;4.13;0.90;;;22.70;98.70;;;;;;5027365;28;20515;-62
2022/07/17 09:57:40;;;;;;;3.47;0.80;;;22.60;97.80;;;;;;5019173;28;20129;-63
2022/07/17 10:00:12;;;;;;;3.47;0.80;;;22.80;98.30;;;;;;5000510;28;20052;-63
2022/07/17 10:02:43;;;;;;;3.40;0.70;;;22.90;97.90;;;;;;5036665;28;20130;-63
2022/07/17 10:05:15;;;;;;;1.97;1.00;;;23.00;97.50;;;;;;5083754;28;20040;-61
2022/07/17 10:07:47;;;;;;;;;;;23.20;97.90;;;;;;5091967;28;20063;-63
2022/07/17 10:10:14;;;;;;;2.95;0.88;;;23.50;98.50;;;;;;5087852;28;19924;-63
2022/07/17 10:12:43;;;;;;;4.93;1.00;;;23.70;98.00;;;;;;5087172;28;20050;-62
2022/07/17 10:15:10;;;;;;;2.88;0.60;;;23.90;97.70;;;;;;5082667;28;20048;-64
2022/07/17 10:17:36;;;;;;;4.10;0.75;;;24.00;96.80;;;;;;5089258;28;20036;-63
2022/07/17 10:20:03;;;;;;;3.00;0.88;;;24.20;97.00;;;;;;5071704;28;20056;-62
2022/07/17 10:22:41;;;;;;;4.18;0.93;;;24.30;96.80;;;;;;5084783;28;20032;-63
2022/07/17 10:25:11;;;;;;;2.67;0.80;;;24.30;94.90;;;;;;5088725;28;20051;-62
2022/07/17 10:27:45;;;;;;;3.65;0.90;;;24.30;96.10;;;;;;5087998;28;20050;-61
2022/07/17 10:30:11;;;;;;;2.47;0.95;;;24.50;95.90;;;;;;5090434;28;20445;-63
2022/07/17 10:32:38;;;;;;;2.85;0.90;;;24.40;95.50;;;;;;5088338;28;20408;-63
2022/07/17 10:35:09;;;;;;;3.13;0.80;;;24.50;95.80;;;;;;5090199;28;20052;-63
2022/07/17 10:37:34;;;;;;;3.50;0.85;;;24.60;95.60;;;;;;5071690;28;20071;-60
2022/07/17 10:40:14;;;;;;;2.65;0.70;;;24.50;95.00;;;;;;5093501;28;20043;-62
2022/07/17 10:42:44;;;;;;;2.50;0.63;;;24.60;95.90;;;;;;5091664;28;20365;-62
2022/07/17 10:45:13;;;;;;;3.67;1.02;;;24.60;95.20;;;;;;5126163;27;20090;-63
2022/07/17 10:47:46;;;;;;;2.85;0.93;;;24.50;94.70;;;;;;5088062;28;20124;-62
2022/07/17 10:50:12;;;;;;;4.30;1.10;;;24.60;94.90;;;;;;5092880;28;20141;-61
2022/07/17 10:52:38;;;;;;;3.15;1.17;;;24.70;95.10;;;;;;5092250;28;20039;-62
2022/07/17 10:55:05;;;;;;;3.67;0.93;;;24.60;94.20;;;;;;5093655;28;20119;-62
2022/07/17 10:57:39;;;;;;;4.07;0.98;;;24.10;93.70;;;;;;5087507;28;20037;-61
2022/07/17 11:00:05;;;;;;;4.68;1.20;;;24.20;94.30;;;;;;5087610;28;20055;-63
2022/07/17 11:02:31;;;;;;;2.97;0.70;;;24.20;94.50;;;;;;5090885;28;20111;-64
2022/07/17 11:05:07;;;;;;;1.48;0.88;;;24.30;94.70;;;;;;5071781;28;20166;-64
2022/07/17 11:07:32;;;;;;;3.65;1.02;;;23.90;93.90;;;;;;5092850;28;20491;-64
2022/07/17 11:09:59;;;;;;;2.50;0.88;;;24.20;94.40;;;;;;5123298;27;20097;-65
2022/07/17 11:12:32;;;;;;;3.40;0.88;;;24.20;94.10;;;;;;5085109;28;20111;-63
2022/07/17 11:15:02;;;;;;;2.70;1.05;;;24.40;93.80;;;;;;5087846;28;20089;-62
2022/07/17 11:17:28;;;;;;;3.63;0.90;;;24.10;93.70;;;;;;5092729;28;20031;-63
2022/07/17 11:19:53;;;;;;;3.80;1.25;;;24.20;93.80;;;;;;5082403;28;20119;-63
2022/07/17 11:22:23;;;;;;;3.65;1.27;;;24.40;93.80;;;;;;5089431;28;20048;-65
2022/07/17 11:24:49;;;;;;;6.15;1.05;;;24.50;94.10;;;;;;5091935;28;20035;-63
2022/07/17 11:27:20;;;;;;;2.75;0.80;;;24.60;94.00;;;;;;5092018;28;20063;-63
2022/07/17 11:29:47;;;;;;;3.55;0.70;;;24.80;94.00;;;;;;5091598;28;20467;-64
2022/07/17 11:32:13;;;;;;;4.82;1.20;;;25.00;93.70;;;;;;5090083;28;20050;-63
2022/07/17 11:34:39;;;;;;;2.63;0.90;;;25.00;93.20;;;;;;5091083;28;20127;-63
2022/07/17 11:37:07;;;;;;;2.78;1.15;;;25.00;93.00;;;;;;5087257;28;20123;-63
2022/07/17 11:39:42;;;;;;;3.50;1.17;;;25.00;93.00;;;;;;5091121;28;20071;-64
2022/07/17 11:42:10;;;;;;;2.17;1.00;;;24.90;93.10;;;;;;5086982;28;20067;-63
2022/07/17 11:44:36;;;;;;;2.42;0.93;;;24.60;92.60;;;;;;5087670;28;20091;-63
2022/07/17 11:47:03;;;;;;;4.43;1.48;;;24.40;92.80;;;;;;5092270;28;20093;-63
2022/07/17 11:49:34;;;;;;;2.15;0.80;;;24.30;92.60;;;;;;5089041;28;20047;-64
2022/07/17 11:52:10;;;;;;;2.90;1.05;;;24.20;92.60;;;;;;5091061;28;20489;-64
2022/07/17 11:54:49;;;;;;;5.15;1.08;;;24.10;92.20;;;;;;5107097;28;20048;-64
2022/07/17 11:57:17;;;;;;;2.17;1.00;;;23.90;92.60;;;;;;5089633;28;20098;-63
2022/07/17 11:59:43;;;;;;;2.33;0.90;;;24.10;93.10;;;;;;5081211;28;20083;-63
2022/07/17 12:02:14;;;;;;;2.03;1.02;;;24.20;92.90;;;;;;5080489;28;20040;-63
2022/07/17 12:04:57;;;;;;;2.30;0.80;;;24.20;92.70;;;;;;5090086;28;20475;-63
2022/07/17 12:07:25;;;;;;;5.18;1.20;;;24.00;92.90;;;;;;5091800;28;20353;-63
2022/07/17 12:09:52;;;;;;;3.08;1.23;;;24.10;92.90;;;;;;5088759;28;20047;-64
2022/07/17 12:12:26;;;;;;;3.92;1.40;;;24.10;92.90;;;;;;5089094;28;20087;-64
2022/07/17 12:14:57;;;;;;;3.35;1.45;;;23.90;92.50;;;;;;5090658;28;20405;-63
2022/07/17 12:17:23;;;;;;;2.43;1.10;;;24.00;92.70;;;;;;5090512;28;20035;-64
2022/07/17 12:19:51;;;;;;;3.20;0.93;;;23.80;92.40;;;;;;5089574;28;20052;-63
2022/07/17 12:22:18;;;;;;;3.58;1.00;;;23.70;92.70;;;;;;5085937;28;20083;-63
2022/07/17 12:24:45;;;;;;;3.28;1.23;;;23.70;93.20;;;;;;5091139;28;20097;-63
2022/07/17 12:27:13;;;;;;;5.43;1.35;;;23.90;93.00;;;;;;5088753;28;20553;-64
2022/07/17 12:29:40;;;;;;;3.95;1.63;;;23.90;93.40;;;;;;5122191;27;20038;-63
2022/07/17 12:32:09;;;;;;;3.38;1.13;;;24.00;93.10;;;;;;5087595;28;20048;-64
2022/07/17 12:34:36;;;;;;;2.80;1.38;;;24.10;93.10;;;;;;5090158;28;20066;-63
2022/07/17 12:37:03;;;;;;;3.58;1.35;;;24.10;92.60;;;;;;5088101;28;20071;-63
2022/07/17 12:39:29;;;;;;;3.30;1.40;;;24.20;93.10;;;;;;5088210;28;20043;-64
2022/07/17 12:41:54;;;;;;;2.33;1.35;;;24.20;92.80;;;;;;5087972;28;20032;-63
2022/07/17 12:44:20;;;;;;;3.53;1.40;;;24.10;92.30;;;;;;5090151;28;20080;-65
2022/07/17 12:46:46;;;;;;;3.38;1.10;;;23.90;92.50;;;;;;5123583;27;20035;-64